createdAt,value
2022-12-20T11:17:32.171Z,99037.23
2022-12-20T11:20:52.842Z,99039.33
2022-12-20T14:10:34.546Z,98931.34
2022-12-20T14:13:02.841Z,98938.49
2022-12-20T14:15:32.966Z,98935.52
2022-12-20T14:18:20.016Z,98935.08
2022-12-20T14:21:08.821Z,98943.63
2022-12-20T14:23:45.712Z,98938.85
2022-12-20T14:26:19.456Z,98934.02
2022-12-20T14:28:50.180Z,98933.04
2022-12-20T14:31:33.725Z,98937.77
2022-12-20T14:34:10.682Z,98935.45
2022-12-20T14:36:40.621Z,98938.00
2022-12-20T14:39:29.121Z,98938.02
2022-12-20T14:42:00.887Z,98922.23
2022-12-20T14:44:31.017Z,98930.89
2022-12-20T14:47:01.536Z,98932.56
2022-12-20T14:49:32.317Z,98926.56
2022-12-20T14:52:20.504Z,98924.19
2022-12-20T14:55:10.271Z,98924.66
2022-12-20T14:57:41.203Z,98915.43
2022-12-20T15:00:21.718Z,98919.79
2022-12-20T15:03:01.494Z,98924.42
2022-12-20T15:05:36.879Z,98923.39
2022-12-20T15:08:13.958Z,98921.75
2022-12-20T15:10:43.506Z,98917.02
2022-12-20T15:13:16.635Z,98915.63
2022-12-20T15:15:45.616Z,98916.86
2022-12-20T15:18:18.943Z,98911.39
2022-12-20T15:20:49.955Z,98909.56
2022-12-20T15:23:19.997Z,98908.48
2022-12-20T15:25:48.662Z,98904.94
2022-12-20T15:28:20.232Z,98908.76
2022-12-20T15:30:49.996Z,98901.94
2022-12-20T15:33:21.591Z,98900.79
2022-12-20T15:35:49.718Z,98902.02
2022-12-20T15:38:40.662Z,98902.59
2022-12-20T15:41:17.863Z,98901.31
2022-12-20T15:43:45.920Z,98896.41
2022-12-20T15:46:14.420Z,98901.34
2022-12-20T15:48:42.510Z,98902.81
2022-12-20T15:51:26.379Z,98901.64
2022-12-20T15:53:55.153Z,98898.73
2022-12-20T15:56:24.654Z,98893.14
2022-12-20T15:58:53.047Z,98890.23
2022-12-20T16:01:40.989Z,98891.91
2022-12-20T16:04:15.849Z,98889.52
2022-12-20T16:06:45.983Z,98883.67
2022-12-20T16:09:15.414Z,98870.73
2022-12-20T16:11:44.153Z,98863.98
2022-12-20T16:14:21.654Z,98861.55
2022-12-20T16:16:51.476Z,98860.27
2022-12-20T16:19:19.643Z,98854.65
2022-12-20T16:21:50.680Z,98854.27
2022-12-20T16:24:20.588Z,98854.23
2022-12-20T16:26:49.576Z,98858.58
2022-12-20T16:29:17.564Z,98862.35
2022-12-20T16:31:45.823Z,98863.69
2022-12-20T16:34:19.355Z,98859.79
2022-12-20T16:36:47.605Z,98857.43
2022-12-20T16:39:15.680Z,98853.40
2022-12-20T16:41:45.020Z,98851.08
2022-12-20T16:44:15.301Z,98850.88
2022-12-20T16:46:43.546Z,98849.48
2022-12-20T16:49:19.454Z,98852.70
2022-12-20T16:51:49.084Z,98853.23
2022-12-20T16:54:22.591Z,98856.34
2022-12-20T16:56:56.170Z,98854.30
2022-12-20T16:59:25.351Z,98845.54
2022-12-20T17:01:55.989Z,98839.00
2022-12-20T17:04:25.081Z,98835.69
2022-12-20T17:06:53.084Z,98838.80
2022-12-20T17:09:21.059Z,98844.13
2022-12-20T17:11:50.387Z,98844.36
2022-12-20T17:14:20.068Z,98846.60
2022-12-20T17:16:48.351Z,98851.23
2022-12-20T17:19:16.562Z,98845.89
2022-12-20T17:24:33.860Z,98844.33
2022-12-20T17:27:01.953Z,98839.98
2022-12-20T17:29:30.207Z,98835.70
2022-12-20T17:31:58.366Z,98830.44
2022-12-20T17:34:29.453Z,98843.05
2022-12-20T17:36:59.278Z,98836.48
2022-12-20T17:39:27.454Z,98827.36
2022-12-20T17:41:55.968Z,98827.91
2022-12-20T17:44:26.906Z,98822.18
2022-12-20T17:46:56.553Z,98823.47
2022-12-20T17:49:25.076Z,98821.31
2022-12-20T17:51:53.207Z,98811.00
2022-12-20T17:54:25.365Z,98806.09
2022-12-20T17:56:57.436Z,98811.20
2022-12-20T17:59:26.039Z,98809.66
2022-12-20T18:01:54.383Z,98795.19
2022-12-20T18:04:22.767Z,98794.11
2022-12-20T18:06:52.319Z,98797.36
2022-12-20T18:09:21.708Z,98791.38
2022-12-20T18:11:50.077Z,98800.89
2022-12-20T18:14:18.225Z,98811.84
2022-12-20T18:16:46.546Z,98815.82
2022-12-20T18:19:17.544Z,98809.99
2022-12-20T18:21:45.720Z,98807.06
2022-12-20T18:24:15.602Z,98807.69
2022-12-20T18:26:45.266Z,98805.84
2022-12-20T18:29:13.411Z,98805.98
2022-12-20T18:31:41.507Z,98809.13
2022-12-20T18:34:10.171Z,98810.04
2022-12-20T18:36:38.306Z,98806.65
2022-12-20T18:39:08.054Z,98803.50
2022-12-20T18:41:36.264Z,98804.06
2022-12-20T18:44:06.623Z,98804.50
2022-12-20T18:46:34.721Z,98803.55
2022-12-20T18:49:03.310Z,98800.30
2022-12-20T18:51:36.856Z,98792.19
2022-12-20T18:54:08.161Z,98793.36
2022-12-20T18:56:38.609Z,98794.71
2022-12-20T18:59:12.131Z,98797.96
2022-12-20T19:01:42.828Z,98795.70
2022-12-20T19:04:12.024Z,98790.44
2022-12-20T19:06:40.328Z,98787.92
2022-12-20T19:09:11.163Z,98788.96
2022-12-20T19:11:39.766Z,98787.55
2022-12-20T19:14:09.102Z,98782.52
2022-12-20T19:16:39.777Z,98782.58
2022-12-20T19:19:09.141Z,98777.36
2022-12-20T19:21:39.956Z,98772.96
2022-12-20T19:24:09.811Z,98778.27
2022-12-20T19:26:39.236Z,98782.59
2022-12-20T19:29:08.152Z,98786.23
2022-12-20T19:31:37.817Z,98788.79
2022-12-20T19:34:08.897Z,98802.64
2022-12-20T19:36:42.719Z,98808.04
2022-12-20T19:39:20.644Z,98813.64
2022-12-20T19:42:21.775Z,98817.69
2022-12-20T19:44:38.552Z,98821.97
2022-12-20T19:47:06.923Z,98824.61
2022-12-20T19:49:38.280Z,98821.95
2022-12-20T19:52:06.967Z,98812.17
2022-12-20T19:54:35.703Z,98811.39
2022-12-20T19:57:04.146Z,98808.98
2022-12-20T19:59:32.436Z,98802.46
2022-12-20T20:02:01.046Z,98794.36
2022-12-20T20:04:29.572Z,98794.74
2022-12-20T20:06:57.936Z,98796.30
2022-12-20T20:09:26.179Z,98796.46
2022-12-20T20:11:54.549Z,98798.04
2022-12-20T20:14:25.887Z,98788.62
2022-12-20T20:16:59.290Z,98782.97
2022-12-20T20:19:29.914Z,98770.77
2022-12-20T20:22:02.975Z,98763.14
2022-12-20T20:24:31.296Z,98764.54
2022-12-20T20:27:10.705Z,98754.25
2022-12-20T20:29:41.510Z,98751.96
2022-12-20T20:32:10.264Z,98751.05
2022-12-20T20:34:38.592Z,98756.84
2022-12-20T20:37:07.521Z,98751.09
2022-12-20T20:39:36.040Z,98751.20
2022-12-20T20:42:04.323Z,98747.93
2022-12-20T20:44:33.635Z,98739.84
2022-12-20T20:47:01.879Z,98744.77
2022-12-20T20:49:30.261Z,98738.66
2022-12-20T20:51:58.700Z,98736.22
2022-12-20T20:54:27.724Z,98733.36
2022-12-20T20:56:55.885Z,98730.58
2022-12-20T20:59:25.099Z,98717.48
2022-12-20T21:01:53.831Z,98715.61
2022-12-20T21:04:22.390Z,98708.51
2022-12-20T21:06:50.971Z,98705.63
2022-12-20T21:09:19.621Z,98704.33
2022-12-20T21:11:48.024Z,98707.08
2022-12-20T21:14:16.442Z,98700.88
2022-12-20T21:16:44.806Z,98698.99
2022-12-20T21:19:13.091Z,98691.43
2022-12-20T21:21:41.252Z,98684.36
2022-12-20T21:24:09.675Z,98679.34
2022-12-20T21:26:38.329Z,98679.89
2022-12-20T21:29:07.072Z,98677.70
2022-12-20T21:31:36.379Z,98676.20
2022-12-20T21:34:04.790Z,98671.93
2022-12-20T21:36:33.086Z,98666.95
2022-12-20T21:39:01.322Z,98661.66
2022-12-20T21:41:29.938Z,98660.60
2022-12-20T21:43:59.517Z,98652.50
2022-12-20T21:46:30.325Z,98648.45
2022-12-20T21:48:59.089Z,98666.58
2022-12-20T21:51:29.262Z,98677.02
2022-12-20T21:54:01.101Z,98677.00
2022-12-20T21:56:31.758Z,98677.18
2022-12-20T21:59:00.343Z,98678.34
2022-12-20T22:01:29.209Z,98683.05
2022-12-20T22:04:00.805Z,98685.30
2022-12-20T22:06:29.416Z,98686.59
2022-12-20T22:08:59.127Z,98686.51
2022-12-20T22:11:27.659Z,98699.92
2022-12-20T22:13:56.254Z,98704.58
2022-12-20T22:16:29.111Z,98703.57
2022-12-20T22:18:58.963Z,98698.52
2022-12-20T22:21:30.267Z,98700.59
2022-12-20T22:23:59.389Z,98702.50
2022-12-20T22:26:29.796Z,98700.14
2022-12-20T22:29:01.728Z,98689.63
2022-12-20T22:31:31.010Z,98688.42
2022-12-20T22:34:00.186Z,98684.48
2022-12-20T22:36:28.660Z,98686.36
2022-12-20T22:38:57.447Z,98677.91
2022-12-20T22:41:28.962Z,98680.23
2022-12-20T22:43:59.430Z,98677.64
2022-12-20T22:46:31.455Z,98667.88
2022-12-20T22:49:01.848Z,98659.94
2022-12-20T22:51:33.603Z,98656.35
2022-12-20T22:54:02.329Z,98658.40
2022-12-20T22:56:30.478Z,98646.11
2022-12-20T22:58:58.444Z,98645.77
2022-12-20T23:01:27.386Z,98640.95
2022-12-20T23:03:56.402Z,98639.47
2022-12-20T23:06:24.744Z,98642.86
2022-12-20T23:08:52.883Z,98636.51
2022-12-20T23:11:42.155Z,98630.58
2022-12-20T23:14:39.720Z,98623.52
2022-12-20T23:17:09.593Z,98615.00
2022-12-20T23:19:56.555Z,98613.61
2022-12-20T23:22:41.030Z,98613.54
2022-12-20T23:25:18.421Z,98613.00
2022-12-20T23:27:48.583Z,98615.08
2022-12-20T23:30:19.615Z,98612.85
2022-12-20T23:32:47.675Z,98612.11
2022-12-20T23:35:17.872Z,98610.36
2022-12-20T23:37:46.962Z,98603.59
2022-12-20T23:40:16.438Z,98602.02
2022-12-20T23:42:45.003Z,98600.82
2022-12-20T23:45:13.257Z,98597.98
2022-12-20T23:47:41.202Z,98598.90
2022-12-20T23:50:09.573Z,98598.80
2022-12-20T23:52:37.732Z,98598.87
2022-12-20T23:55:06.500Z,98596.67
2022-12-20T23:57:34.617Z,98597.39
